YBRM Airport Information

Runway Information
Runway 10 Length 8064 ft width 148 ft
Elevation 56 ft Threshold 295 ft Heading 105
Runway 28 Length 8064 ft Width 148 ft
Elevation 22 ft Threshold 689 ft Heading 285
Airport Frequencies
Type ATIS Name ATIS Frequency 126.55 MHZ
Type CTAF Name CTAF Frequency 126 MHZ
Type FSS Name BRISBANE C Frequency 123.9 MHZ
Airport Navaids
Type NDB-DME Name Broome Frequency 320 KHZ
Airport Weather Information & NOTAM
ADDS - METARS form results

(0453 UTC 07 March 2021)
Data provider http://aviationweather.gov/metar/data/
 
METAR text: YBRM 070430Z AUTO 26009KT 240V300 9999 // SCT025 33/24 Q1008
Conditions at: YBRM (BROOME AIRPORT , AU) observed 0430 UTC 07 March 2021
Temperature: 33.0°C (91°F)
Dewpoint: 24.0°C (75°F) [RH = 59%]
Pressure (altimeter): 29.76 inches Hg (1008.0 mb)
Winds: from the W (260 degrees) at 10 MPH (9 knots; 4.6 m/s)
Visibility: 6 or more miles (10+ km)
Ceiling: at least 12,000 feet AGL
Clouds: scattered clouds at 2500 feet AGL
Weather: no significant weather observed at this time

METAR text: YBRM 070400Z AUTO 26011KT 9999 // SCT025 32/24 Q1008
Conditions at: YBRM (BROOME AIRPORT , AU) observed 0400 UTC 07 March 2021
Temperature: 32.0°C (90°F)
Dewpoint: 24.0°C (75°F) [RH = 63%]
Pressure (altimeter): 29.76 inches Hg (1008.0 mb)
Winds: from the W (260 degrees) at 13 MPH (11 knots; 5.7 m/s)
Visibility: 6 or more miles (10+ km)
Ceiling: at least 12,000 feet AGL
Clouds: scattered clouds at 2500 feet AGL
Weather: no significant weather observed at this time

Forecast for: YBRM (BROOME AIRPORT , AU)
Text: TAF YBRM 062306Z 0700/0800 26012KT 9999 FEW025
Forecast period: 0000 to 1200 UTC 07 March 2021
Forecast type: FROM: standard forecast or significant change
Winds: from the W (260 degrees) at 14 MPH (12 knots; 6.2 m/s)
Visibility: 6 or more miles (10+ km)
Ceiling: at least 12,000 feet AGL
Clouds: few clouds at 2500 feet AGL
Weather: no significant weather forecast for this period
Text: FM071200 27010KT 9999 SCT020
Forecast period: 1200 UTC 07 March 2021 to 0000 UTC 08 March 2021
Forecast type: FROM: standard forecast or significant change
Winds: from the W (270 degrees) at 12 MPH (10 knots; 5.1 m/s)
Visibility: 6 or more miles (10+ km)
Ceiling: at least 12,000 feet AGL
Clouds: scattered clouds at 2000 feet AGL
Weather: no significant weather forecast for this period